createdAt,value
2017-11-15T00:00:52.893Z,3.6
2017-11-15T00:02:11.538Z,3.6
2017-11-15T00:03:30.257Z,3.6
2017-11-15T00:04:48.916Z,3.6
2017-11-15T00:06:07.598Z,3.6
2017-11-15T00:07:26.253Z,3.6
2017-11-15T00:08:44.902Z,3.7
2017-11-15T00:10:03.574Z,3.7
2017-11-15T00:11:22.278Z,3.7
2017-11-15T00:12:40.993Z,3.7
2017-11-15T00:13:59.657Z,3.7
2017-11-15T00:15:18.355Z,3.7
2017-11-15T00:16:37.026Z,3.7
2017-11-15T00:17:55.702Z,3.7
2017-11-15T00:19:14.353Z,3.7
2017-11-15T00:20:32.998Z,3.7
2017-11-15T00:21:51.706Z,3.7
2017-11-15T00:23:10.426Z,3.7
2017-11-15T00:24:29.127Z,3.7
2017-11-15T00:25:47.771Z,3.7
2017-11-15T00:27:06.422Z,3.7
2017-11-15T00:28:25.075Z,3.7
2017-11-15T00:29:43.727Z,3.7
2017-11-15T00:31:02.373Z,3.8
2017-11-15T00:32:21.043Z,3.8
2017-11-15T00:33:39.685Z,3.9
2017-11-15T00:34:58.345Z,3.9
2017-11-15T00:36:17.028Z,3.9
2017-11-15T00:37:35.726Z,3.9
2017-11-15T00:38:54.392Z,3.9
2017-11-15T00:40:13.035Z,3.9
2017-11-15T00:41:31.681Z,3.9
2017-11-15T00:42:50.431Z,3.9
2017-11-15T00:44:09.105Z,3.9
2017-11-15T00:45:27.754Z,4
2017-11-15T00:46:46.403Z,4
2017-11-15T00:48:05.049Z,4
2017-11-15T00:49:23.748Z,4
2017-11-15T00:50:42.396Z,4.1
2017-11-15T00:52:01.077Z,4.1
2017-11-15T00:53:19.744Z,4.1
2017-11-15T00:54:38.385Z,4
2017-11-15T00:55:57.075Z,4.1
2017-11-15T00:57:15.723Z,4.1
2017-11-15T00:58:34.382Z,4
2017-11-15T00:59:53.098Z,4
2017-11-15T01:01:11.747Z,4
2017-11-15T01:02:30.469Z,4
2017-11-15T01:03:49.148Z,4
2017-11-15T01:05:07.783Z,4
2017-11-15T01:06:26.420Z,4
2017-11-15T01:07:45.089Z,4
2017-11-15T01:09:03.795Z,4
2017-11-15T01:10:22.473Z,3.9
2017-11-15T01:11:41.127Z,3.9
2017-11-15T01:12:59.778Z,3.9
2017-11-15T01:14:18.461Z,3.9
2017-11-15T01:15:37.119Z,3.9
2017-11-15T01:16:55.767Z,3.8
2017-11-15T01:18:14.409Z,3.8
2017-11-15T01:19:33.077Z,3.8
2017-11-15T01:20:51.777Z,3.8
2017-11-15T01:22:10.494Z,3.8
2017-11-15T01:23:29.138Z,3.8
2017-11-15T01:24:47.781Z,3.8
2017-11-15T01:26:06.421Z,3.8
2017-11-15T01:27:25.108Z,3.7
2017-11-15T01:28:43.801Z,3.7
2017-11-15T01:30:02.523Z,3.8
2017-11-15T01:31:21.174Z,3.8
2017-11-15T01:32:39.813Z,3.8
2017-11-15T01:33:58.464Z,3.7
2017-11-15T01:35:17.162Z,3.7
2017-11-15T01:36:35.821Z,3.7
2017-11-15T01:37:54.468Z,3.7
2017-11-15T01:39:13.119Z,3.7
2017-11-15T01:40:31.794Z,3.8
2017-11-15T01:41:50.490Z,3.7
2017-11-15T01:43:09.139Z,3.7
2017-11-15T01:44:27.781Z,3.7
2017-11-15T01:45:46.459Z,3.7
2017-11-15T01:47:05.122Z,3.7
2017-11-15T01:48:23.815Z,3.7
2017-11-15T01:49:42.455Z,3.7
2017-11-15T01:51:01.133Z,3.7
2017-11-15T01:52:19.805Z,3.6
2017-11-15T01:53:38.448Z,3.7
2017-11-15T01:54:57.104Z,3.6
2017-11-15T01:56:15.778Z,3.6
2017-11-15T01:57:34.423Z,3.6
2017-11-15T01:58:53.075Z,3.6
2017-11-15T02:00:11.711Z,3.6
2017-11-15T02:01:30.391Z,3.6
2017-11-15T02:02:49.042Z,3.7
2017-11-15T02:04:07.744Z,3.7
2017-11-15T02:05:26.443Z,3.7
2017-11-15T02:06:45.149Z,3.6
2017-11-15T02:08:03.797Z,3.6
2017-11-15T02:09:22.504Z,3.6
2017-11-15T02:10:41.181Z,3.6
2017-11-15T02:11:59.856Z,3.6
2017-11-15T02:13:18.556Z,3.6
2017-11-15T02:14:37.245Z,3.6
2017-11-15T02:15:55.896Z,3.6
2017-11-15T02:17:14.616Z,3.6
2017-11-15T02:18:33.265Z,3.7
2017-11-15T02:19:51.959Z,3.6
2017-11-15T02:21:10.599Z,3.7
2017-11-15T02:22:29.260Z,3.7
2017-11-15T02:23:47.905Z,3.7
2017-11-15T02:25:06.560Z,3.7
2017-11-15T02:26:25.262Z,3.8
2017-11-15T02:27:43.984Z,3.8
2017-11-15T02:29:02.632Z,3.8
2017-11-15T02:30:21.313Z,3.8
2017-11-15T02:31:39.990Z,3.7
2017-11-15T02:32:58.692Z,3.7
2017-11-15T02:34:17.392Z,3.7
2017-11-15T02:35:36.058Z,3.7
2017-11-15T02:36:54.730Z,3.6
2017-11-15T02:38:13.469Z,3.6
2017-11-15T02:39:32.133Z,3.6
2017-11-15T02:40:50.777Z,3.7
2017-11-15T02:42:09.442Z,3.7
2017-11-15T02:43:28.128Z,3.6
2017-11-15T02:44:46.774Z,3.6
2017-11-15T02:46:05.419Z,3.6
2017-11-15T02:47:24.070Z,3.6
2017-11-15T02:48:42.737Z,3.5
2017-11-15T02:50:01.394Z,3.5
2017-11-15T02:51:20.070Z,3.6
2017-11-15T02:52:38.749Z,3.5
2017-11-15T02:53:57.408Z,3.6
2017-11-15T02:55:16.057Z,3.5
2017-11-15T02:56:34.697Z,3.5
2017-11-15T02:57:53.372Z,3.6
2017-11-15T02:59:12.048Z,3.5
2017-11-15T03:00:30.733Z,3.5
2017-11-15T03:01:49.372Z,3.4
2017-11-15T03:03:08.017Z,3.5
2017-11-15T03:04:26.672Z,3.4
2017-11-15T03:05:45.350Z,3.4
2017-11-15T03:07:04.038Z,3.4
2017-11-15T03:08:22.682Z,3.4
2017-11-15T03:09:41.332Z,3.4
2017-11-15T03:11:00.010Z,3.4
2017-11-15T03:12:18.713Z,3.4
2017-11-15T03:13:37.374Z,3.5
2017-11-15T03:14:56.047Z,3.5
2017-11-15T03:16:14.701Z,3.5
2017-11-15T03:17:33.343Z,3.5
2017-11-15T03:18:51.991Z,3.6
2017-11-15T03:20:10.676Z,3.6
2017-11-15T03:21:29.331Z,3.6
2017-11-15T03:22:48.058Z,3.6
2017-11-15T03:24:06.728Z,3.7
2017-11-15T03:25:25.393Z,3.7
2017-11-15T03:26:44.074Z,3.7
2017-11-15T03:28:02.722Z,3.7
2017-11-15T03:29:21.422Z,3.7
2017-11-15T03:30:40.093Z,3.8
2017-11-15T03:31:58.798Z,3.8
2017-11-15T03:33:17.441Z,3.9
2017-11-15T03:34:36.085Z,3.9
2017-11-15T03:35:54.798Z,3.9
2017-11-15T03:37:13.502Z,4
2017-11-15T03:38:32.198Z,3.9
2017-11-15T03:39:50.834Z,4
2017-11-15T03:41:09.498Z,4
2017-11-15T03:42:28.183Z,4
2017-11-15T03:43:46.826Z,4
2017-11-15T03:45:05.514Z,4
2017-11-15T03:46:24.214Z,4
2017-11-15T03:47:42.906Z,4
2017-11-15T03:49:01.553Z,4
2017-11-15T03:50:20.191Z,4.1
2017-11-15T03:51:38.872Z,4.1
2017-11-15T03:52:57.573Z,4.1
2017-11-15T03:54:16.278Z,4.1
2017-11-15T03:55:34.968Z,4.1
2017-11-15T03:56:53.637Z,4.1
2017-11-15T03:58:12.288Z,4.1
2017-11-15T03:59:30.932Z,4.1
2017-11-15T04:00:49.593Z,4.1
2017-11-15T04:02:08.252Z,4.1
2017-11-15T04:03:26.889Z,4.1
2017-11-15T04:04:45.536Z,4.1
2017-11-15T04:06:04.228Z,4
2017-11-15T04:07:22.884Z,4.1
2017-11-15T04:08:41.607Z,4
2017-11-15T04:10:00.249Z,4
2017-11-15T04:11:18.922Z,4
2017-11-15T04:12:37.604Z,4
2017-11-15T04:13:56.253Z,4
2017-11-15T04:15:14.916Z,4
2017-11-15T04:16:33.583Z,4
2017-11-15T04:17:52.256Z,3.9
2017-11-15T04:19:10.900Z,4
2017-11-15T04:20:29.574Z,4
2017-11-15T04:21:48.224Z,4.1
2017-11-15T04:23:06.875Z,4.1
2017-11-15T04:24:25.568Z,4.1
2017-11-15T04:25:44.215Z,4.2
2017-11-15T04:27:02.914Z,4.2
2017-11-15T04:28:21.588Z,4.2
2017-11-15T04:29:40.274Z,4.1
2017-11-15T04:30:58.915Z,4.1
2017-11-15T04:32:17.570Z,4.1
2017-11-15T04:33:36.233Z,4.1
2017-11-15T04:34:54.886Z,4.1
2017-11-15T04:36:13.529Z,4.1
2017-11-15T04:37:32.180Z,4.1
2017-11-15T04:38:50.872Z,4.1
2017-11-15T04:40:09.571Z,4.1
2017-11-15T04:41:28.258Z,4.1
2017-11-15T04:42:46.905Z,4.1
2017-11-15T04:44:05.558Z,4
2017-11-15T04:45:24.200Z,4
2017-11-15T04:46:42.914Z,3.9
2017-11-15T04:48:01.614Z,3.9
2017-11-15T04:49:20.319Z,3.9
2017-11-15T04:50:38.980Z,3.9
2017-11-15T04:51:57.620Z,3.9
2017-11-15T04:53:16.265Z,3.9
2017-11-15T04:54:34.937Z,3.9
2017-11-15T04:55:53.594Z,4
2017-11-15T04:57:12.243Z,4
2017-11-15T04:58:30.886Z,4.1
2017-11-15T04:59:49.586Z,4.1
2017-11-15T05:01:08.229Z,4.1
2017-11-15T05:02:26.873Z,4.1
2017-11-15T05:03:45.561Z,4.1
2017-11-15T05:05:04.270Z,4.1
2017-11-15T05:06:22.952Z,4.1
2017-11-15T05:07:41.637Z,4.1
2017-11-15T05:09:00.280Z,4.1
2017-11-15T05:10:18.934Z,4.1
2017-11-15T05:11:37.604Z,4.1
2017-11-15T05:12:56.244Z,4.2
2017-11-15T05:14:14.884Z,4.2
2017-11-15T05:15:33.553Z,4.2
2017-11-15T05:16:52.216Z,4.2
2017-11-15T05:18:10.904Z,4.2
2017-11-15T05:19:29.559Z,4.2
2017-11-15T05:20:48.265Z,4.2
2017-11-15T05:22:06.953Z,4.2
2017-11-15T05:23:25.598Z,4.2
2017-11-15T05:24:44.263Z,4.2
2017-11-15T05:26:02.933Z,4.2
2017-11-15T05:27:21.664Z,4.2
2017-11-15T05:28:40.314Z,4.2
2017-11-15T05:29:58.959Z,4.1
2017-11-15T05:31:17.674Z,4.1
2017-11-15T05:32:36.345Z,4.2
2017-11-15T05:33:55.007Z,4.2
2017-11-15T05:35:13.663Z,4.2
2017-11-15T05:36:32.358Z,4.1
2017-11-15T05:37:51.020Z,4.2
2017-11-15T05:39:09.666Z,4.1
2017-11-15T05:40:28.309Z,4.1
2017-11-15T05:41:46.966Z,4.2
2017-11-15T05:43:05.678Z,4.2
2017-11-15T05:44:24.348Z,4.2
2017-11-15T05:45:42.995Z,4.1
2017-11-15T05:47:01.727Z,4.1
2017-11-15T05:48:20.367Z,4.1
2017-11-15T05:49:39.026Z,4.1
2017-11-15T05:50:57.690Z,4.1
2017-11-15T05:52:16.380Z,4.1
2017-11-15T05:53:35.031Z,4.1
2017-11-15T05:54:53.680Z,4.1
2017-11-15T05:56:12.341Z,4.1
2017-11-15T05:57:31.023Z,4
2017-11-15T05:58:49.687Z,4
2017-11-15T06:00:08.329Z,4.1
2017-11-15T06:01:26.988Z,4
2017-11-15T06:02:45.633Z,4.1
2017-11-15T06:04:04.334Z,4.1
2017-11-15T06:05:23.024Z,4.1
2017-11-15T06:06:41.666Z,4.1
2017-11-15T06:08:00.316Z,4.2
2017-11-15T06:09:18.975Z,4.2
2017-11-15T06:10:37.720Z,4.2
2017-11-15T06:11:56.437Z,4.2
2017-11-15T06:13:15.218Z,4.2
2017-11-15T06:14:33.936Z,4.2
2017-11-15T06:15:52.576Z,4.2
2017-11-15T06:17:11.319Z,4.2
2017-11-15T06:18:30.102Z,4.2
2017-11-15T06:19:48.859Z,4.2
2017-11-15T06:21:07.573Z,4.2
2017-11-15T06:22:26.302Z,4.1
2017-11-15T06:23:44.984Z,4.1
2017-11-15T06:25:03.642Z,4.2
2017-11-15T06:26:22.307Z,4.2
2017-11-15T06:27:40.971Z,4.2
2017-11-15T06:28:59.753Z,4.2
2017-11-15T06:30:18.498Z,4.2
2017-11-15T06:31:37.236Z,4.2
2017-11-15T06:32:56.012Z,4.2
2017-11-15T06:34:14.765Z,4.2
2017-11-15T06:35:33.461Z,4.1
2017-11-15T06:36:52.175Z,4.1
2017-11-15T06:38:10.864Z,4
2017-11-15T06:39:29.542Z,4
2017-11-15T06:40:48.230Z,4
2017-11-15T06:42:06.878Z,4.1
2017-11-15T06:43:25.513Z,4.1
2017-11-15T06:44:44.194Z,4.2
2017-11-15T06:46:02.859Z,4.2
2017-11-15T06:47:21.498Z,4.2
2017-11-15T06:48:40.133Z,4.2
2017-11-15T06:49:58.799Z,4.2
2017-11-15T06:51:17.472Z,4.2
2017-11-15T06:52:36.123Z,4.2
2017-11-15T06:53:54.759Z,4.2
2017-11-15T06:55:13.430Z,4.2
2017-11-15T06:56:32.076Z,4.2
2017-11-15T06:57:50.708Z,4.3
2017-11-15T06:59:09.351Z,4.3
2017-11-15T07:00:28.028Z,4.3
2017-11-15T07:01:46.720Z,4.4
2017-11-15T07:03:05.424Z,4.4
2017-11-15T07:04:24.124Z,4.6
2017-11-15T07:05:42.804Z,4.6
2017-11-15T07:07:01.469Z,4.6
2017-11-15T07:08:20.135Z,4.6
2017-11-15T07:09:38.860Z,4.7
2017-11-15T07:10:57.538Z,4.8
2017-11-15T07:12:16.231Z,4.8
2017-11-15T07:13:34.923Z,4.8
2017-11-15T07:14:53.562Z,4.8
2017-11-15T07:16:12.291Z,4.9
2017-11-15T07:17:31.015Z,4.9
2017-11-15T07:18:49.658Z,5
2017-11-15T07:20:08.300Z,4.9
2017-11-15T07:21:26.976Z,4.9
2017-11-15T07:22:45.630Z,5
2017-11-15T07:24:04.273Z,5
2017-11-15T07:25:22.930Z,5
2017-11-15T07:26:41.638Z,5
2017-11-15T07:28:00.277Z,5.1
2017-11-15T07:29:18.940Z,5.2
2017-11-15T07:30:37.582Z,5.2
2017-11-15T07:31:56.247Z,5.2
2017-11-15T07:33:14.936Z,5.2
2017-11-15T07:34:33.610Z,5.2
2017-11-15T07:35:52.255Z,5.2
2017-11-15T07:37:10.980Z,5.2
2017-11-15T07:38:29.660Z,5.2
2017-11-15T07:39:48.317Z,5.1
2017-11-15T07:41:06.966Z,5.2
2017-11-15T07:42:25.613Z,5.3
2017-11-15T07:43:44.274Z,5.4
2017-11-15T07:45:02.966Z,5.5
2017-11-15T07:46:21.667Z,5.5
2017-11-15T07:47:40.378Z,5.5
2017-11-15T07:48:59.048Z,5.4
2017-11-15T07:50:17.700Z,5.4
2017-11-15T07:51:36.339Z,5.3
2017-11-15T07:52:55.024Z,5.5
2017-11-15T07:54:13.690Z,5.5
2017-11-15T07:55:32.326Z,5.5
2017-11-15T07:56:51.005Z,5.6
2017-11-15T07:58:09.661Z,5.7
2017-11-15T07:59:28.346Z,5.7
2017-11-15T08:00:47.050Z,5.8
2017-11-15T08:02:05.699Z,5.9
2017-11-15T08:03:24.368Z,5.9
2017-11-15T08:04:43.022Z,5.9
2017-11-15T08:06:01.688Z,5.8
2017-11-15T08:07:20.373Z,5.9
2017-11-15T08:08:39.027Z,5.8
2017-11-15T08:09:57.672Z,5.7
2017-11-15T08:11:16.321Z,5.8
2017-11-15T08:12:34.979Z,5.8
2017-11-15T08:13:53.655Z,6
2017-11-15T08:15:12.294Z,6
2017-11-15T08:16:30.954Z,5.9
2017-11-15T08:17:49.647Z,5.9
2017-11-15T08:19:08.319Z,6.1
2017-11-15T08:20:27.028Z,6.1
2017-11-15T08:21:45.712Z,6.1
2017-11-15T08:23:04.361Z,6.1
2017-11-15T08:24:23.023Z,6.2
2017-11-15T08:25:41.689Z,6.3
2017-11-15T08:27:00.324Z,6.3
2017-11-15T08:28:18.970Z,6.4
2017-11-15T08:29:37.613Z,6.4
2017-11-15T08:30:56.269Z,6.5
2017-11-15T08:32:14.908Z,6.5
2017-11-15T08:33:33.604Z,6.5
2017-11-15T08:34:52.335Z,6.4
2017-11-15T08:36:11.051Z,6.4
2017-11-15T08:37:29.699Z,6.3
2017-11-15T08:38:48.425Z,6.3
2017-11-15T08:40:07.086Z,6.3
2017-11-15T08:41:25.727Z,6.4
2017-11-15T08:42:44.364Z,6.4
2017-11-15T08:44:03.058Z,6.5
2017-11-15T08:45:21.745Z,6.7
2017-11-15T08:46:40.447Z,6.7
2017-11-15T08:47:59.090Z,6.7
2017-11-15T08:49:17.732Z,6.8
2017-11-15T08:50:36.411Z,6.9
2017-11-15T08:51:55.078Z,6.9
2017-11-15T08:53:13.724Z,7
2017-11-15T08:54:32.384Z,7
2017-11-15T08:55:51.056Z,7
2017-11-15T08:57:09.740Z,6.9
2017-11-15T08:58:28.449Z,6.9
2017-11-15T08:59:47.112Z,6.9
2017-11-15T09:01:05.811Z,6.9
2017-11-15T09:02:24.461Z,7
2017-11-15T09:03:43.097Z,7.1
2017-11-15T09:05:01.819Z,7.1
2017-11-15T09:06:20.540Z,7.2
2017-11-15T09:07:39.268Z,7.3
2017-11-15T09:08:57.924Z,7.3
2017-11-15T09:10:16.612Z,7.4
2017-11-15T09:11:35.265Z,7.6
2017-11-15T09:12:53.961Z,7.6
2017-11-15T09:14:12.611Z,7.7
2017-11-15T09:15:31.263Z,7.8
2017-11-15T09:16:49.922Z,7.8
2017-11-15T09:18:08.567Z,7.9
2017-11-15T09:19:27.209Z,7.9
2017-11-15T09:20:45.846Z,7.8
2017-11-15T09:22:04.524Z,8
2017-11-15T09:23:23.203Z,7.9
2017-11-15T09:24:41.849Z,8
2017-11-15T09:26:00.490Z,8.1
2017-11-15T09:27:19.167Z,8
2017-11-15T09:28:37.815Z,7.8
2017-11-15T09:29:56.465Z,7.7
2017-11-15T09:31:15.115Z,7.7
2017-11-15T09:32:33.780Z,7.9
2017-11-15T09:33:52.428Z,8
2017-11-15T09:35:11.071Z,7.9
2017-11-15T09:36:29.776Z,7.9
2017-11-15T09:37:48.466Z,7.8
2017-11-15T09:39:07.115Z,7.9
2017-11-15T09:40:25.816Z,8
2017-11-15T09:41:44.458Z,7.9
2017-11-15T09:43:03.156Z,7.9
2017-11-15T09:44:21.817Z,8
2017-11-15T09:45:40.462Z,7.8
2017-11-15T09:46:59.149Z,7.8
2017-11-15T09:48:17.815Z,8
2017-11-15T09:49:36.454Z,7.9
2017-11-15T09:50:55.112Z,8
2017-11-15T09:52:13.763Z,8.2
2017-11-15T09:53:32.435Z,8.4
2017-11-15T09:54:51.085Z,8.4
2017-11-15T09:56:09.752Z,8.6
2017-11-15T09:57:28.399Z,8.5
2017-11-15T09:58:47.048Z,8.4
2017-11-15T10:00:05.733Z,8.5
2017-11-15T10:01:24.376Z,8.4
2017-11-15T10:02:43.087Z,8.6
2017-11-15T10:04:01.788Z,8.5
2017-11-15T10:05:20.494Z,8.7
2017-11-15T10:06:39.132Z,8.6
2017-11-15T10:07:57.777Z,8.7
2017-11-15T10:09:16.484Z,8.4
2017-11-15T10:10:35.155Z,8.2
2017-11-15T10:11:53.842Z,8.1
2017-11-15T10:13:12.486Z,8.1
2017-11-15T10:14:31.131Z,8.1
2017-11-15T10:15:49.781Z,8
2017-11-15T10:17:08.436Z,8
2017-11-15T10:18:27.081Z,8
2017-11-15T10:19:45.798Z,8.1
2017-11-15T10:21:04.442Z,7.9
2017-11-15T10:22:23.120Z,7.9
2017-11-15T10:23:41.760Z,7.8
2017-11-15T10:25:00.460Z,7.8
2017-11-15T10:26:19.151Z,7.8
2017-11-15T10:27:37.848Z,7.7
2017-11-15T10:28:56.515Z,7.7
2017-11-15T10:30:15.183Z,7.8
2017-11-15T10:31:33.828Z,7.8
2017-11-15T10:32:52.487Z,7.7
2017-11-15T10:34:11.130Z,7.8
2017-11-15T10:35:29.801Z,7.8
2017-11-15T10:36:48.456Z,7.9
2017-11-15T10:38:07.100Z,7.7
2017-11-15T10:39:25.789Z,7.8
2017-11-15T10:40:44.501Z,7.8
2017-11-15T10:42:03.235Z,8
2017-11-15T10:43:21.880Z,8.1
2017-11-15T10:44:40.529Z,8.3
2017-11-15T10:45:59.210Z,8.5
2017-11-15T10:47:17.871Z,8.5
2017-11-15T10:48:36.515Z,8.7
2017-11-15T10:49:55.162Z,8.8
2017-11-15T10:51:13.845Z,8.7
2017-11-15T10:52:32.509Z,8.8
2017-11-15T10:53:51.158Z,8.9
2017-11-15T10:55:09.857Z,9
2017-11-15T10:56:28.514Z,9
2017-11-15T10:57:47.177Z,8.8
2017-11-15T10:59:05.865Z,8.9
2017-11-15T11:00:24.517Z,8.9
2017-11-15T11:01:43.192Z,9.2
2017-11-15T11:03:01.836Z,9.3
2017-11-15T11:04:20.476Z,9
2017-11-15T11:05:39.129Z,9
2017-11-15T11:06:57.826Z,9
2017-11-15T11:08:16.470Z,9
2017-11-15T11:09:35.116Z,8.9
2017-11-15T11:10:53.804Z,8.8
2017-11-15T11:12:12.482Z,8.7
2017-11-15T11:13:31.145Z,8.6
2017-11-15T11:14:49.791Z,8.8
2017-11-15T11:16:08.450Z,9
2017-11-15T11:17:27.152Z,8.6
2017-11-15T11:18:45.797Z,8.7
2017-11-15T11:20:04.443Z,8.9
2017-11-15T11:21:23.080Z,8.9
2017-11-15T11:22:41.752Z,8.9
2017-11-15T11:24:00.394Z,8.7
2017-11-15T11:25:19.034Z,8.8
2017-11-15T11:26:37.686Z,8.9
2017-11-15T11:27:56.373Z,9.1
2017-11-15T11:29:15.048Z,9.1
2017-11-15T11:30:33.697Z,9.3
2017-11-15T11:31:52.376Z,9.4
2017-11-15T11:33:11.093Z,9.5
2017-11-15T11:34:29.741Z,9.6
2017-11-15T11:35:48.397Z,10.1
2017-11-15T11:37:07.059Z,10.5
2017-11-15T11:38:25.746Z,10.6
2017-11-15T11:39:44.403Z,10.5
2017-11-15T11:41:03.056Z,10.7
2017-11-15T11:42:21.728Z,10.4
2017-11-15T11:43:40.471Z,10.3
2017-11-15T11:44:59.139Z,10.4
2017-11-15T11:46:17.834Z,10.7
2017-11-15T11:47:36.522Z,10.5
2017-11-15T11:48:55.236Z,10.6
2017-11-15T11:50:13.896Z,10.3
2017-11-15T11:51:32.598Z,10.2
2017-11-15T11:52:51.314Z,10.3
2017-11-15T11:54:10.009Z,10.2
2017-11-15T11:55:28.672Z,10.4
2017-11-15T11:56:47.384Z,10.4
2017-11-15T11:58:06.126Z,10.3
2017-11-15T11:59:24.810Z,10.3
2017-11-15T12:00:43.509Z,10.3
2017-11-15T12:02:02.186Z,10.4
2017-11-15T12:03:20.873Z,10.3
2017-11-15T12:04:39.541Z,10.4
2017-11-15T12:05:58.210Z,10.5
2017-11-15T12:07:16.871Z,10.5
2017-11-15T12:08:35.537Z,10.5
2017-11-15T12:09:54.238Z,10.4
2017-11-15T12:11:12.904Z,10.6
2017-11-15T12:12:31.616Z,10.8
2017-11-15T12:13:50.305Z,11
2017-11-15T12:15:09.052Z,11
2017-11-15T12:16:27.757Z,11
2017-11-15T12:17:46.474Z,10.7
2017-11-15T12:19:05.157Z,10.5
2017-11-15T12:20:23.828Z,10.3
2017-11-15T12:21:42.548Z,10.1
2017-11-15T12:23:01.196Z,9.9
2017-11-15T12:24:19.883Z,10.1
2017-11-15T12:25:38.551Z,9.7
2017-11-15T12:26:57.199Z,9.8
2017-11-15T12:28:15.924Z,9.8
2017-11-15T12:29:34.628Z,9.5
2017-11-15T12:30:53.295Z,9.3
2017-11-15T12:32:11.961Z,9.3
2017-11-15T12:33:30.631Z,9.5
2017-11-15T12:34:49.273Z,9.3
2017-11-15T12:36:07.978Z,9.3
2017-11-15T12:37:26.632Z,9.2
2017-11-15T12:38:45.271Z,9.1
2017-11-15T12:40:03.953Z,9.3
2017-11-15T12:41:22.652Z,9.5
2017-11-15T12:42:41.303Z,9.5
2017-11-15T12:43:59.953Z,9.5
2017-11-15T12:45:18.653Z,9.4
2017-11-15T12:46:37.389Z,9.5
2017-11-15T12:47:56.035Z,9.6
2017-11-15T12:49:14.729Z,9.6
2017-11-15T12:50:33.391Z,9.5
2017-11-15T12:51:52.102Z,9.3
2017-11-15T12:53:10.777Z,9.6
2017-11-15T12:54:29.424Z,9.4
2017-11-15T12:55:48.065Z,9.2
2017-11-15T12:57:06.735Z,9.2
2017-11-15T12:58:25.381Z,9.1
2017-11-15T12:59:44.017Z,9.3
2017-11-15T13:01:02.663Z,9.5
2017-11-15T13:02:21.375Z,9.4
2017-11-15T13:03:40.047Z,9.3
2017-11-15T13:04:58.701Z,9.4
2017-11-15T13:06:17.376Z,9.5
2017-11-15T13:07:36.049Z,9.3
2017-11-15T13:08:54.795Z,9.4
2017-11-15T13:10:13.451Z,9.6
2017-11-15T13:11:32.110Z,9.5
2017-11-15T13:12:50.823Z,9.2
2017-11-15T13:14:09.502Z,9
2017-11-15T13:15:28.152Z,9.1
2017-11-15T13:16:46.798Z,9
2017-11-15T13:18:05.463Z,9
2017-11-15T13:19:24.131Z,9
2017-11-15T13:20:42.808Z,8.9
2017-11-15T13:22:01.445Z,8.9
2017-11-15T13:23:20.117Z,8.7
2017-11-15T13:24:38.771Z,8.7
2017-11-15T13:25:57.494Z,8.7
2017-11-15T13:27:16.150Z,8.9
2017-11-15T13:28:34.819Z,8.7
2017-11-15T13:29:53.512Z,8.7
2017-11-15T13:31:12.182Z,8.7
2017-11-15T13:32:30.861Z,8.7
2017-11-15T13:33:49.567Z,8.8
2017-11-15T13:35:08.218Z,8.8
2017-11-15T13:36:26.880Z,8.7
2017-11-15T13:37:45.538Z,8.9
2017-11-15T13:39:04.195Z,8.8
2017-11-15T13:40:22.852Z,8.9
2017-11-15T13:41:41.504Z,8.8
2017-11-15T13:43:00.142Z,8.7
2017-11-15T13:44:18.809Z,8.5
2017-11-15T13:45:37.448Z,8.4
2017-11-15T13:46:56.101Z,8.5
2017-11-15T13:48:14.787Z,8.4
2017-11-15T13:49:33.458Z,8.3
2017-11-15T13:50:52.128Z,8.2
2017-11-15T13:52:10.770Z,8.2
2017-11-15T13:53:29.412Z,8.2
2017-11-15T13:54:48.143Z,8.1
2017-11-15T13:56:06.794Z,8
2017-11-15T13:57:25.441Z,7.9
2017-11-15T13:58:44.091Z,7.9
2017-11-15T14:00:02.782Z,7.8
2017-11-15T14:01:21.424Z,7.8
2017-11-15T14:02:40.064Z,7.8
2017-11-15T14:03:58.754Z,7.8
2017-11-15T14:05:17.424Z,7.8
2017-11-15T14:06:36.080Z,7.8
2017-11-15T14:07:54.727Z,7.8
2017-11-15T14:09:13.391Z,7.8
2017-11-15T14:10:32.125Z,7.8
2017-11-15T14:11:50.763Z,7.8
2017-11-15T14:13:09.458Z,7.8
2017-11-15T14:14:28.154Z,7.8
2017-11-15T14:15:46.817Z,7.8
2017-11-15T14:17:05.532Z,7.8
2017-11-15T14:18:24.190Z,7.8
2017-11-15T14:19:42.849Z,7.7
2017-11-15T14:21:01.584Z,7.6
2017-11-15T14:22:20.238Z,7.6
2017-11-15T14:23:38.926Z,7.6
2017-11-15T14:24:57.570Z,7.7
2017-11-15T14:26:16.240Z,7.7
2017-11-15T14:27:34.915Z,7.6
2017-11-15T14:28:53.560Z,7.6
2017-11-15T14:30:12.222Z,7.6
2017-11-15T14:31:30.880Z,7.6
2017-11-15T14:32:49.521Z,7.6
2017-11-15T14:34:08.223Z,7.5
2017-11-15T14:35:26.884Z,7.6
2017-11-15T14:36:45.534Z,7.5
2017-11-15T14:38:04.208Z,7.5
2017-11-15T14:39:22.846Z,7.5
2017-11-15T14:40:41.488Z,7.4
2017-11-15T14:42:00.163Z,7.3
2017-11-15T14:43:18.816Z,7.3
2017-11-15T14:44:37.535Z,7.3
2017-11-15T14:45:56.181Z,7.3
2017-11-15T14:47:14.901Z,7.5
2017-11-15T14:48:33.553Z,7.3
2017-11-15T14:49:52.193Z,7.2
2017-11-15T14:51:10.836Z,7.1
2017-11-15T14:52:29.510Z,7.1
2017-11-15T14:53:48.160Z,7.2
2017-11-15T14:55:06.823Z,7.1
2017-11-15T14:56:25.476Z,7.2
2017-11-15T14:57:44.151Z,7.2
2017-11-15T14:59:02.821Z,7.1
2017-11-15T15:00:21.500Z,7.1
2017-11-15T15:01:40.151Z,7
2017-11-15T15:02:58.863Z,6.9
2017-11-15T15:04:17.524Z,6.9
2017-11-15T15:05:36.189Z,6.9
2017-11-15T15:06:54.842Z,6.9
2017-11-15T15:08:13.511Z,6.8
2017-11-15T15:09:32.212Z,6.9
2017-11-15T15:10:50.864Z,6.8
2017-11-15T15:12:09.561Z,6.8
2017-11-15T15:13:28.237Z,6.7
2017-11-15T15:14:46.908Z,6.7
2017-11-15T15:16:05.549Z,6.7
2017-11-15T15:17:24.196Z,6.6
2017-11-15T15:18:42.863Z,6.7
2017-11-15T15:20:01.559Z,6.7
2017-11-15T15:21:20.261Z,6.7
2017-11-15T15:22:38.908Z,6.6
2017-11-15T15:23:57.585Z,6.5
2017-11-15T15:25:16.277Z,6.5
2017-11-15T15:26:34.959Z,6.5
2017-11-15T15:27:53.658Z,6.5
2017-11-15T15:29:12.326Z,6.5
2017-11-15T15:30:30.970Z,6.5
2017-11-15T15:31:49.606Z,6.5
2017-11-15T15:33:08.303Z,6.5
2017-11-15T15:34:26.996Z,6.5
2017-11-15T15:35:45.642Z,6.5
2017-11-15T15:37:04.287Z,6.5
2017-11-15T15:38:22.927Z,6.5
2017-11-15T15:39:41.623Z,6.5
2017-11-15T15:41:00.290Z,6.4
2017-11-15T15:42:18.926Z,6.5
2017-11-15T15:43:37.571Z,6.5
2017-11-15T15:44:56.224Z,6.5
2017-11-15T15:46:14.885Z,6.5
2017-11-15T15:47:33.556Z,6.4
2017-11-15T15:48:52.247Z,6.5
2017-11-15T15:50:10.969Z,6.5
2017-11-15T15:51:29.606Z,6.4
2017-11-15T15:52:48.247Z,6.5
2017-11-15T15:54:06.912Z,6.4
2017-11-15T15:55:25.632Z,6.5
2017-11-15T15:56:44.307Z,6.5
2017-11-15T15:58:02.949Z,6.4
2017-11-15T15:59:21.619Z,6.4
2017-11-15T16:00:40.281Z,6.4
2017-11-15T16:01:58.950Z,6.4
2017-11-15T16:03:17.589Z,6.5
2017-11-15T16:04:36.246Z,6.5
2017-11-15T16:05:54.917Z,6.5
2017-11-15T16:07:13.617Z,6.6
2017-11-15T16:08:32.299Z,6.5
2017-11-15T16:09:50.963Z,6.5
2017-11-15T16:11:09.639Z,6.4
2017-11-15T16:12:28.287Z,6.4
2017-11-15T16:13:46.968Z,6.4
2017-11-15T16:15:05.614Z,6.3
2017-11-15T16:16:24.288Z,6.3
2017-11-15T16:17:42.932Z,6.4
2017-11-15T16:19:01.612Z,6.3
2017-11-15T16:20:20.266Z,6.3
2017-11-15T16:21:38.942Z,6.3
2017-11-15T16:22:57.596Z,6.3
2017-11-15T16:24:16.262Z,6.3
2017-11-15T16:25:34.966Z,6.3
2017-11-15T16:26:53.633Z,6.3
2017-11-15T16:28:12.281Z,6.3
2017-11-15T16:29:30.974Z,6.3
2017-11-15T16:30:49.623Z,6.2
2017-11-15T16:32:08.297Z,6.3
2017-11-15T16:33:26.945Z,6.2
2017-11-15T16:34:45.597Z,6.2
2017-11-15T16:36:04.238Z,6.2
2017-11-15T16:37:22.911Z,6.1
2017-11-15T16:38:41.591Z,6.1
2017-11-15T16:40:00.242Z,6.1
2017-11-15T16:41:18.906Z,6.2
2017-11-15T16:42:37.582Z,6.2
2017-11-15T16:43:56.295Z,6.2
2017-11-15T16:45:14.989Z,6.2
2017-11-15T16:46:33.638Z,6.3
2017-11-15T16:47:52.291Z,6.2
2017-11-15T16:49:10.937Z,6.2
2017-11-15T16:50:29.581Z,6.2
2017-11-15T16:51:48.228Z,6.2
2017-11-15T16:53:06.912Z,6.2
2017-11-15T16:54:25.574Z,6.2
2017-11-15T16:55:44.224Z,6.2
2017-11-15T16:57:02.889Z,6.2
2017-11-15T16:58:21.567Z,6.2
2017-11-15T16:59:40.243Z,6.3
2017-11-15T17:00:58.934Z,6.3
2017-11-15T17:02:17.586Z,6.4
2017-11-15T17:03:36.266Z,6.5
2017-11-15T17:04:54.904Z,6.4
2017-11-15T17:06:13.541Z,6.4
2017-11-15T17:07:32.189Z,6.4
2017-11-15T17:08:50.888Z,6.5
2017-11-15T17:10:09.564Z,6.4
2017-11-15T17:11:28.205Z,6.3
2017-11-15T17:12:46.856Z,6.3
2017-11-15T17:14:05.556Z,6.3
2017-11-15T17:15:24.278Z,6.3
2017-11-15T17:16:42.919Z,6.3
2017-11-15T17:18:01.569Z,6.4
2017-11-15T17:19:20.280Z,6.4
2017-11-15T17:20:38.932Z,6.4
2017-11-15T17:21:57.596Z,6.5
2017-11-15T17:23:16.262Z,6.5
2017-11-15T17:24:34.941Z,6.4
2017-11-15T17:25:53.587Z,6.5
2017-11-15T17:27:12.282Z,6.5
2017-11-15T17:28:30.924Z,6.6
2017-11-15T17:29:49.578Z,6.5
2017-11-15T17:31:08.245Z,6.4
2017-11-15T17:32:26.948Z,6.4
2017-11-15T17:33:45.649Z,6.4
2017-11-15T17:35:04.298Z,6.5
2017-11-15T17:36:22.951Z,6.5
2017-11-15T17:37:41.642Z,6.5
2017-11-15T17:39:00.290Z,6.6
2017-11-15T17:40:19.001Z,6.6
2017-11-15T17:41:37.640Z,6.6
2017-11-15T17:42:56.363Z,6.6
2017-11-15T17:44:15.039Z,6.6
2017-11-15T17:45:33.742Z,6.6
2017-11-15T17:46:52.425Z,6.6
2017-11-15T17:48:11.089Z,6.5
2017-11-15T17:49:29.733Z,6.6
2017-11-15T17:50:48.400Z,6.6
2017-11-15T17:52:07.039Z,6.6
2017-11-15T17:53:25.702Z,6.6
2017-11-15T17:54:44.341Z,6.5
2017-11-15T17:56:03.016Z,6.4
2017-11-15T17:57:21.712Z,6.3
2017-11-15T17:58:40.364Z,6.3
2017-11-15T17:59:59.032Z,6.3
2017-11-15T18:01:17.687Z,6.3
2017-11-15T18:02:36.393Z,6.2
2017-11-15T18:03:55.059Z,6.2
2017-11-15T18:05:13.696Z,6.2
2017-11-15T18:06:32.372Z,6.2
2017-11-15T18:07:51.032Z,6.3
2017-11-15T18:09:09.678Z,6.4